Pagrindinis puslapis
METAR-TAF:

METAR-TAF

Oro uostai :

Pattani, Tailandas

platuma: 06-47-08N, ilguma: 101-09-13E, Aukštis: 2 m

METAR: trūkstamas

Laikas: 04:16 (21:16 UTC)

Prognozė

Ataskaita buvo paskelbta 4 valandos ir 16 minutes, ne 17:00 UTC
Prognozė galioja nuo 17 metu 18 UTC su 18 metu 18 UTC
Vėjas 3 kt iš Pietų
Matomumas 10 km arba daugiau
Mažai debesys ne aukštis 2000 ft
Su prošvaistėmis ne aukštis 10000 ft
Laikinai
nuo 18 metu 07 UTC su 18 metu 13 UTC
Vėjas 10 kt nuo kintamojo kryptimis su gūsio iki 20 kt
Matomumas: 5000 m
Mažai debesys ne aukštis 1600 ft, Liūtiniai kamuoliniai debesys.
Išsisklaidę debesys ne aukštis 1800 ft
Su prošvaistėmis ne aukštis 10000 ft
perkūnija, lietus

TAF: VTSK 171700Z 1718/1818 19003KT 9999 FEW020 BKN100 TEMPO 1807/1813 VRB10G20KT 5000 TSRA FEW016CB SCT018 BKN100

Orai ataskaitas ir orų prognozės (METAR, TAF).

turimą stotys yra geltonos ir raudonos taškus žemėlapyje.

Perkelti pele per norėdami pamatyti stoties vardą.

Tada spustelėkite, norėdami matyti oro stebėjimo ir prognozės.

Norėdami pakeisti žemėlapį: spustelėkite ant žalios mygtukų su juodo kryžiaus žemyn,; žalią mygtuką su brūkšneliu, jei norite nutolinti; arba žalių rodyklių gretimoms žemėlapius.


METAR-TAF: